createdAt,value
2019-04-28T00:01:48.769Z,24.35
2019-04-28T00:04:18.378Z,22.62
2019-04-28T00:06:47.911Z,20.92
2019-04-28T00:09:17.446Z,21.00
2019-04-28T00:11:46.975Z,21.10
2019-04-28T00:14:16.506Z,18.85
2019-04-28T00:16:45.962Z,20.50
2019-04-28T00:19:15.419Z,21.05
2019-04-28T00:21:46.559Z,20.82
2019-04-28T00:24:32.909Z,21.62
2019-04-28T00:27:03.747Z,20.40
2019-04-28T00:29:40.239Z,20.08
2019-04-28T00:32:04.575Z,19.87
2019-04-28T00:34:34.183Z,20.67
2019-04-28T00:37:14.356Z,21.35
2019-04-28T00:39:43.921Z,21.93
2019-04-28T00:42:13.454Z,20.02
2019-04-28T00:44:55.035Z,22.10
2019-04-28T00:47:24.879Z,22.05
2019-04-28T00:49:54.412Z,22.30
2019-04-28T00:52:24.097Z,22.47
2019-04-28T00:54:53.630Z,23.65
2019-04-28T00:57:23.084Z,23.10
2019-04-28T00:59:58.210Z,25.60
2019-04-28T01:02:31.302Z,23.15
2019-04-28T01:05:01.922Z,23.85
2019-04-28T01:07:33.012Z,24.90
2019-04-28T01:10:04.331Z,22.17
2019-04-28T01:12:33.787Z,23.75
2019-04-28T01:15:04.889Z,23.73
2019-04-28T01:17:49.822Z,23.77
2019-04-28T01:20:20.967Z,22.55
2019-04-28T01:22:50.423Z,21.93
2019-04-28T01:25:20.293Z,24.43
2019-04-28T01:27:51.502Z,21.33
2019-04-28T01:30:31.695Z,24.75
2019-04-28T01:33:14.737Z,24.20
2019-04-28T01:35:44.190Z,23.35
2019-04-28T01:38:13.723Z,23.35
2019-04-28T01:40:43.176Z,23.40
2019-04-28T01:43:12.574Z,23.42
2019-04-28T01:45:42.011Z,23.15
2019-04-28T01:48:11.463Z,24.02
2019-04-28T01:53:11.834Z,25.90
2019-04-28T01:55:41.367Z,25.07
2019-04-28T01:58:10.731Z,23.90
2019-04-28T02:00:40.601Z,24.47
2019-04-28T02:03:10.370Z,24.60
2019-04-28T02:05:41.024Z,26.65
2019-04-28T02:08:10.558Z,27.62
2019-04-28T02:10:40.220Z,27.55
2019-04-28T02:13:11.310Z,27.97
2019-04-28T02:15:41.992Z,28.07
2019-04-28T02:18:11.456Z,27.73
2019-04-28T02:20:42.595Z,28.27
2019-04-28T02:23:13.662Z,28.32
2019-04-28T02:25:55.119Z,26.52
2019-04-28T02:28:24.624Z,28.25
2019-04-28T02:30:54.150Z,26.50
2019-04-28T02:33:23.690Z,26.90
2019-04-28T02:35:53.161Z,24.92
2019-04-28T02:38:22.675Z,26.33
2019-04-28T02:40:52.094Z,26.02
2019-04-28T02:43:21.584Z,23.15
2019-04-28T02:45:53.410Z,23.57
2019-04-28T02:48:23.717Z,21.87
2019-04-28T02:51:14.222Z,21.85
2019-04-28T02:53:44.361Z,21.52
2019-04-28T02:56:13.893Z,20.35
2019-04-28T02:58:43.424Z,19.90
2019-04-28T03:01:22.020Z,19.65
2019-04-28T03:03:43.946Z,17.87
2019-04-28T03:06:13.477Z,16.40
2019-04-28T03:08:42.936Z,16.50
2019-04-28T03:11:12.464Z,17.00
2019-04-28T03:13:42.004Z,15.93
2019-04-28T03:16:11.535Z,15.83
2019-04-28T03:18:41.440Z,14.80
2019-04-28T03:21:12.047Z,13.75
2019-04-28T03:23:41.660Z,14.50
2019-04-28T03:26:24.936Z,13.13
2019-04-28T03:29:00.977Z,11.20
2019-04-28T03:32:01.331Z,11.48
2019-04-28T03:34:04.273Z,10.90
2019-04-28T03:36:34.811Z,11.28
2019-04-28T03:39:06.725Z,10.80
2019-04-28T03:41:37.329Z,10.25
2019-04-28T03:44:06.786Z,10.00
2019-04-28T03:46:37.932Z,9.85
2019-04-28T03:49:07.460Z,8.58
2019-04-28T03:51:36.850Z,8.78
2019-04-28T03:54:06.295Z,8.18
2019-04-28T03:56:35.670Z,8.28
2019-04-28T03:59:05.050Z,8.65
2019-04-28T04:01:34.500Z,7.87
2019-04-28T04:04:04.033Z,7.55
2019-04-28T04:06:33.488Z,8.15
2019-04-28T04:09:02.946Z,7.95
2019-04-28T04:11:35.622Z,7.67
2019-04-28T04:14:11.464Z,7.70
2019-04-28T04:16:44.991Z,8.15
2019-04-28T04:19:15.890Z,7.95
2019-04-28T04:21:45.388Z,8.18
2019-04-28T04:24:14.877Z,8.60
2019-04-28T04:26:44.331Z,8.25
2019-04-28T04:29:13.783Z,8.15
2019-04-28T04:31:43.240Z,8.53
2019-04-28T04:34:12.695Z,8.63
2019-04-28T04:36:42.148Z,8.50
2019-04-28T04:39:11.605Z,7.72
2019-04-28T04:41:43.468Z,8.00
2019-04-28T04:44:12.053Z,7.80
2019-04-28T04:46:41.712Z,7.92
2019-04-28T04:49:11.196Z,7.53
2019-04-28T04:51:43.773Z,7.78
2019-04-28T04:54:11.712Z,7.42
2019-04-28T04:56:41.165Z,6.85
2019-04-28T04:59:10.711Z,6.58
2019-04-28T05:01:50.520Z,7.17
2019-04-28T05:04:33.950Z,7.15
2019-04-28T05:07:03.480Z,7.45
2019-04-28T05:09:32.939Z,6.60
2019-04-28T05:12:02.477Z,6.78
2019-04-28T05:14:31.923Z,6.60
2019-04-28T05:17:01.301Z,5.70
2019-04-28T05:19:30.833Z,6.00
2019-04-28T05:22:00.286Z,6.35
2019-04-28T05:24:40.649Z,5.53
2019-04-28T05:27:10.106Z,5.90
2019-04-28T05:29:39.788Z,5.80
2019-04-28T05:32:10.934Z,5.83
2019-04-28T05:34:46.836Z,4.70
2019-04-28T05:37:11.421Z,5.85
2019-04-28T05:39:40.907Z,6.33
2019-04-28T05:42:11.346Z,6.47
2019-04-28T05:44:41.051Z,6.00
2019-04-28T05:47:10.501Z,6.33
2019-04-28T05:49:53.624Z,5.50
2019-04-28T05:52:33.600Z,6.37
2019-04-28T05:55:17.108Z,6.50
2019-04-28T05:57:49.768Z,6.62
2019-04-28T06:00:37.449Z,6.45
2019-04-28T06:03:14.198Z,6.70
2019-04-28T06:05:43.651Z,6.55
2019-04-28T06:08:31.539Z,6.47
2019-04-28T06:11:02.683Z,5.60
2019-04-28T06:13:32.102Z,7.12
2019-04-28T06:16:01.516Z,6.70
2019-04-28T06:18:30.968Z,6.45
2019-04-28T06:21:00.422Z,7.12
2019-04-28T06:23:29.822Z,6.75
2019-04-28T06:25:59.258Z,6.90
2019-04-28T06:28:28.868Z,6.58
2019-04-28T06:30:58.319Z,6.70
2019-04-28T06:33:28.015Z,6.67
2019-04-28T06:35:58.917Z,5.97
2019-04-28T06:38:28.374Z,6.33
2019-04-28T06:40:57.826Z,7.08
2019-04-28T06:43:27.435Z,6.72
2019-04-28T06:45:56.891Z,5.90
2019-04-28T06:48:26.575Z,6.20
2019-04-28T06:50:56.028Z,6.03
2019-04-28T06:53:25.487Z,6.65
2019-04-28T06:55:55.691Z,6.65
2019-04-28T06:58:26.258Z,6.53
2019-04-28T07:00:57.535Z,6.50
2019-04-28T07:03:32.784Z,6.57
2019-04-28T07:06:02.361Z,6.45
2019-04-28T07:08:31.890Z,6.12
2019-04-28T07:11:01.341Z,5.92
2019-04-28T07:13:30.874Z,6.53
2019-04-28T07:16:00.268Z,6.08
2019-04-28T07:18:33.487Z,5.95
2019-04-28T07:21:06.516Z,6.08
2019-04-28T07:23:38.987Z,5.97
2019-04-28T07:26:11.724Z,6.55
2019-04-28T07:28:49.176Z,6.90
2019-04-28T07:31:20.097Z,5.95
2019-04-28T07:36:18.237Z,6.45
2019-04-28T07:41:25.672Z,6.65
2019-04-28T07:43:55.603Z,7.28
2019-04-28T07:46:25.121Z,5.90
2019-04-28T07:48:54.618Z,7.07
2019-04-28T07:51:25.797Z,6.70
2019-04-28T07:54:02.320Z,6.20
2019-04-28T07:56:31.078Z,5.40
2019-04-28T07:59:00.446Z,5.70
2019-04-28T08:01:31.496Z,5.58
2019-04-28T08:04:01.854Z,6.37
2019-04-28T08:09:02.483Z,5.78
2019-04-28T08:11:53.660Z,5.40
2019-04-28T08:14:26.488Z,5.12
2019-04-28T08:16:58.569Z,5.78
2019-04-28T08:19:29.846Z,6.00
2019-04-28T08:22:12.274Z,5.83
2019-04-28T08:24:43.130Z,5.50
2019-04-28T08:27:14.536Z,5.20
2019-04-28T08:29:57.734Z,5.15
2019-04-28T08:32:21.197Z,4.90
2019-04-28T08:34:51.882Z,4.92
2019-04-28T08:37:21.413Z,4.95
2019-04-28T08:39:51.095Z,4.80
2019-04-28T08:42:20.550Z,4.90
2019-04-28T08:44:50.160Z,4.20
2019-04-28T08:47:19.615Z,4.20
2019-04-28T08:49:50.383Z,4.22
2019-04-28T08:52:22.163Z,4.58
2019-04-28T08:54:52.510Z,3.85
2019-04-28T08:59:51.265Z,4.15
2019-04-28T09:02:20.797Z,4.08
2019-04-28T09:04:50.251Z,4.05
2019-04-28T09:07:19.694Z,3.67
2019-04-28T09:09:49.235Z,3.30
2019-04-28T09:12:18.769Z,3.40
2019-04-28T09:14:48.376Z,3.12
2019-04-28T09:17:17.771Z,4.13
2019-04-28T09:19:47.234Z,3.58
2019-04-28T09:22:16.740Z,3.20
2019-04-28T09:24:46.194Z,3.70
2019-04-28T09:27:15.804Z,3.22
2019-04-28T09:29:45.336Z,3.47
2019-04-28T09:32:14.788Z,3.25
2019-04-28T09:34:44.208Z,3.15
2019-04-28T09:37:13.622Z,3.17
2019-04-28T09:39:46.082Z,3.02
2019-04-28T09:42:31.360Z,3.05
2019-04-28T09:45:09.509Z,3.62
2019-04-28T09:47:39.553Z,3.50
2019-04-28T09:50:10.942Z,4.30
2019-04-28T09:52:42.943Z,4.28
2019-04-28T09:55:14.283Z,4.67
2019-04-28T09:57:45.913Z,5.15
2019-04-28T10:00:18.341Z,5.05
2019-04-28T10:02:52.776Z,4.70
2019-04-28T10:05:22.704Z,4.78
2019-04-28T10:07:54.313Z,4.80
2019-04-28T10:10:27.677Z,4.90
2019-04-28T10:12:59.504Z,4.20
2019-04-28T10:15:31.402Z,5.20
2019-04-28T10:18:02.827Z,4.83
2019-04-28T10:20:32.660Z,4.78
2019-04-28T10:23:02.638Z,5.37
2019-04-28T10:25:32.773Z,5.10
2019-04-28T10:30:31.448Z,4.85
2019-04-28T10:33:03.445Z,5.08
2019-04-28T10:38:01.818Z,4.33
2019-04-28T10:40:34.181Z,4.80
2019-04-28T10:43:05.103Z,4.72
2019-04-28T10:45:46.329Z,5.25
2019-04-28T10:48:16.071Z,4.92
2019-04-28T10:50:45.449Z,4.85
2019-04-28T10:53:14.981Z,5.20
2019-04-28T10:55:44.590Z,5.10
2019-04-28T10:58:14.494Z,5.20
2019-04-28T11:00:43.959Z,4.62
2019-04-28T11:03:13.492Z,5.08
2019-04-28T11:05:46.557Z,5.22
2019-04-28T11:08:23.579Z,5.15
2019-04-28T11:10:53.241Z,5.80
2019-04-28T11:13:23.675Z,5.75
2019-04-28T11:15:53.206Z,5.42
2019-04-28T11:18:22.660Z,4.85
2019-04-28T11:20:52.003Z,4.97
2019-04-28T11:23:23.234Z,5.17
2019-04-28T11:25:52.553Z,5.75
2019-04-28T11:28:22.013Z,5.72
2019-04-28T11:30:51.550Z,5.40
2019-04-28T11:33:25.532Z,5.10
2019-04-28T11:35:54.911Z,5.53
2019-04-28T11:38:24.446Z,5.87
2019-04-28T11:40:53.895Z,6.12
2019-04-28T11:43:23.348Z,6.15
2019-04-28T11:45:52.805Z,5.20
2019-04-28T11:50:51.969Z,5.28
2019-04-28T11:53:21.476Z,5.53
2019-04-28T11:55:50.930Z,4.92
2019-04-28T11:58:20.386Z,4.85
2019-04-28T12:00:49.838Z,5.70
2019-04-28T12:03:19.292Z,5.20
2019-04-28T12:05:48.749Z,4.47
2019-04-28T12:08:18.202Z,4.83
2019-04-28T12:10:49.269Z,4.03
2019-04-28T12:13:20.413Z,4.47
2019-04-28T12:16:08.071Z,3.70
2019-04-28T12:18:57.573Z,3.40
2019-04-28T12:21:27.024Z,3.83
2019-04-28T12:23:56.480Z,3.52
2019-04-28T12:26:25.857Z,3.77
2019-04-28T12:28:55.324Z,3.55
2019-04-28T12:33:54.449Z,3.40
2019-04-28T12:36:23.905Z,3.08
2019-04-28T12:38:53.362Z,2.95
2019-04-28T12:41:22.740Z,2.75
2019-04-28T12:43:52.195Z,3.20
2019-04-28T12:46:21.753Z,2.80
2019-04-28T12:48:52.945Z,2.50
2019-04-28T12:51:22.554Z,2.50
2019-04-28T12:53:53.697Z,2.77
2019-04-28T12:56:23.151Z,3.12
2019-04-28T12:58:54.222Z,3.92
2019-04-28T13:01:25.442Z,3.40
2019-04-28T13:03:59.263Z,2.70
2019-04-28T13:06:28.727Z,2.90
2019-04-28T13:08:58.181Z,3.33
2019-04-28T13:11:27.637Z,2.70
2019-04-28T13:13:57.168Z,3.40
2019-04-28T13:16:26.623Z,2.50
2019-04-28T13:18:55.999Z,2.98
2019-04-28T13:21:25.469Z,2.33
2019-04-28T13:23:54.907Z,2.42
2019-04-28T13:26:24.364Z,1.98
2019-04-28T13:28:53.907Z,2.45
2019-04-28T13:31:23.350Z,1.95
2019-04-28T13:33:56.289Z,2.02
2019-04-28T13:36:23.871Z,2.17
2019-04-28T13:38:53.877Z,1.90
2019-04-28T13:41:23.394Z,2.12
2019-04-28T13:43:52.816Z,2.47
2019-04-28T13:46:23.381Z,2.50
2019-04-28T13:51:22.986Z,2.55
2019-04-28T13:53:52.510Z,2.40
2019-04-28T13:56:22.047Z,2.60
2019-04-28T13:58:53.210Z,3.15
2019-04-28T14:01:33.394Z,3.70
2019-04-28T14:04:13.506Z,3.47
2019-04-28T14:06:44.589Z,5.25
2019-04-28T14:09:15.580Z,3.27
2019-04-28T14:11:45.265Z,3.55
2019-04-28T14:14:14.725Z,4.43
2019-04-28T14:16:44.139Z,3.50
2019-04-28T14:19:13.647Z,3.15
2019-04-28T14:24:12.846Z,4.30
2019-04-28T14:26:42.308Z,3.70
2019-04-28T14:29:11.755Z,3.98
2019-04-28T14:31:41.211Z,3.87
2019-04-28T14:34:10.666Z,3.35
2019-04-28T14:36:42.309Z,3.10
2019-04-28T14:39:11.224Z,3.40
2019-04-28T14:41:41.874Z,2.80
2019-04-28T14:44:11.399Z,3.00
2019-04-28T14:46:40.931Z,2.47
2019-04-28T14:49:10.386Z,2.70
2019-04-28T14:51:39.766Z,2.55
2019-04-28T14:54:09.131Z,4.35
2019-04-28T14:56:38.613Z,3.70
2019-04-28T14:59:08.052Z,10.38
2019-04-28T15:01:45.930Z,5.95
2019-04-28T15:04:17.066Z,3.92
2019-04-28T15:06:55.475Z,5.90
2019-04-28T15:09:21.026Z,4.50
2019-04-28T15:11:52.145Z,6.30
2019-04-28T15:14:21.753Z,6.30
2019-04-28T15:16:51.207Z,7.78
2019-04-28T15:19:20.662Z,5.30
2019-04-28T15:22:09.548Z,6.92
2019-04-28T15:24:40.080Z,5.40
2019-04-28T15:27:09.464Z,4.78
2019-04-28T15:29:39.142Z,6.00
2019-04-28T15:32:08.597Z,6.23
2019-04-28T15:34:39.190Z,6.65
2019-04-28T15:37:09.978Z,7.70
2019-04-28T15:39:39.876Z,8.20
2019-04-28T15:42:09.408Z,8.23
2019-04-28T15:44:38.861Z,7.53
2019-04-28T15:47:08.238Z,7.97
2019-04-28T15:49:37.615Z,9.30
2019-04-28T15:52:07.074Z,9.05
2019-04-28T15:54:36.680Z,8.45
2019-04-28T15:57:06.137Z,10.05
2019-04-28T15:59:35.591Z,10.32
2019-04-28T16:02:05.119Z,10.23
2019-04-28T16:04:34.576Z,10.38
2019-04-28T16:07:04.182Z,12.37
2019-04-28T16:09:34.565Z,12.50
2019-04-28T16:12:04.091Z,12.65
2019-04-28T16:14:33.547Z,13.28
2019-04-28T16:17:03.154Z,13.98
2019-04-28T16:19:32.687Z,13.90
2019-04-28T16:22:02.142Z,12.20
2019-04-28T16:24:31.595Z,13.28
2019-04-28T16:27:01.047Z,12.82
2019-04-28T16:29:30.658Z,14.23
2019-04-28T16:32:00.110Z,14.15
2019-04-28T16:34:29.567Z,13.88
2019-04-28T16:36:59.096Z,14.05
2019-04-28T16:39:28.552Z,14.98
2019-04-28T16:42:11.898Z,14.87
2019-04-28T16:44:45.047Z,16.10
2019-04-28T16:47:14.504Z,13.88
2019-04-28T16:49:43.963Z,15.03
2019-04-28T16:52:13.424Z,15.23
2019-04-28T16:54:42.943Z,15.83
2019-04-28T16:57:33.419Z,16.52
2019-04-28T17:00:04.510Z,15.30
2019-04-28T17:02:57.591Z,16.65
2019-04-28T17:05:26.228Z,15.50
2019-04-28T17:07:56.038Z,15.43
2019-04-28T17:10:25.525Z,13.75
2019-04-28T17:12:55.130Z,14.07
2019-04-28T17:15:24.587Z,14.40
2019-04-28T17:17:54.037Z,14.65
2019-04-28T17:20:23.569Z,14.35
2019-04-28T17:22:53.177Z,14.17
2019-04-28T17:25:22.707Z,14.00
2019-04-28T17:27:52.246Z,13.40
2019-04-28T17:30:21.694Z,12.35
2019-04-28T17:32:51.225Z,12.75
2019-04-28T17:35:20.833Z,12.83
2019-04-28T17:37:50.288Z,12.63
2019-04-28T17:40:20.741Z,13.30
2019-04-28T17:42:50.275Z,13.35
2019-04-28T17:45:19.964Z,13.20
2019-04-28T17:47:50.644Z,13.25
2019-04-28T17:50:20.404Z,12.80
2019-04-28T17:52:49.940Z,12.90
2019-04-28T17:55:19.467Z,12.50
2019-04-28T17:57:48.846Z,12.00
2019-04-28T18:00:31.835Z,12.53
2019-04-28T18:03:02.927Z,12.28
2019-04-28T18:05:34.000Z,15.13
2019-04-28T18:08:04.330Z,13.85
2019-04-28T18:10:34.778Z,13.83
2019-04-28T18:13:04.310Z,15.10
2019-04-28T18:15:35.455Z,12.95
2019-04-28T18:18:24.850Z,20.15
2019-04-28T18:20:54.332Z,19.37
2019-04-28T18:23:24.015Z,19.37
2019-04-28T18:25:53.549Z,15.97
2019-04-28T18:28:23.002Z,17.77
2019-04-28T18:31:11.851Z,14.85
2019-04-28T18:33:46.103Z,14.45
2019-04-28T18:36:17.325Z,13.00
2019-04-28T18:38:51.623Z,12.75
2019-04-28T18:41:39.046Z,13.88
2019-04-28T18:44:13.183Z,13.93
2019-04-28T18:46:42.714Z,12.53
2019-04-28T18:49:12.175Z,11.22
2019-04-28T18:51:41.626Z,12.45
2019-04-28T18:54:11.154Z,11.95
2019-04-28T18:56:40.844Z,11.47
2019-04-28T18:59:10.448Z,19.95
2019-04-28T19:01:41.595Z,24.55
2019-04-28T19:04:11.064Z,25.30
2019-04-28T19:06:40.526Z,14.70
2019-04-28T19:09:27.895Z,33.18
2019-04-28T19:12:01.991Z,15.90
2019-04-28T19:14:36.057Z,29.90
2019-04-28T19:17:19.233Z,14.70
2019-04-28T19:19:48.630Z,12.78
2019-04-28T19:22:18.029Z,11.93
2019-04-28T19:24:47.482Z,12.07
2019-04-28T19:27:16.938Z,12.82
2019-04-28T19:29:46.372Z,13.18
2019-04-28T19:32:15.905Z,12.15
2019-04-28T19:34:47.906Z,13.03
2019-04-28T19:37:17.082Z,11.75
2019-04-28T19:39:46.574Z,12.03
2019-04-28T19:42:16.105Z,11.57
2019-04-28T19:44:45.558Z,12.00
2019-04-28T19:47:15.111Z,12.28
2019-04-28T19:49:44.702Z,12.10
2019-04-28T19:52:14.153Z,12.20
2019-04-28T19:54:45.300Z,12.20
2019-04-28T19:57:19.308Z,12.45
2019-04-28T19:59:56.496Z,12.40
2019-04-28T20:02:27.870Z,13.75
2019-04-28T20:04:57.324Z,15.25
2019-04-28T20:07:26.779Z,15.98
2019-04-28T20:09:56.310Z,14.68
2019-04-28T20:12:25.841Z,13.93
2019-04-28T20:14:55.371Z,13.32
2019-04-28T20:17:24.827Z,11.93
2019-04-28T20:19:54.435Z,12.65
2019-04-28T20:22:24.045Z,12.50
2019-04-28T20:24:53.733Z,13.13
2019-04-28T20:27:23.260Z,12.73
2019-04-28T20:29:52.714Z,12.78
2019-04-28T20:32:22.173Z,12.18
2019-04-28T20:34:51.933Z,14.87
2019-04-28T20:37:23.074Z,15.15
2019-04-28T20:39:54.218Z,16.02
2019-04-28T20:42:37.422Z,18.17
2019-04-28T20:45:08.770Z,14.23
2019-04-28T20:47:38.330Z,14.73
2019-04-28T20:50:07.859Z,13.10
2019-04-28T20:52:37.393Z,13.20
2019-04-28T20:57:36.761Z,13.65
2019-04-28T21:00:06.262Z,16.40
2019-04-28T21:02:37.360Z,16.73
2019-04-28T21:05:06.883Z,15.43
2019-04-28T21:07:36.500Z,12.33
2019-04-28T21:10:06.259Z,15.45
2019-04-28T21:12:35.714Z,14.10
2019-04-28T21:15:05.958Z,12.20
2019-04-28T21:17:35.622Z,13.43
2019-04-28T21:20:07.844Z,13.47
2019-04-28T21:22:37.222Z,12.20
2019-04-28T21:25:07.979Z,18.50
2019-04-28T21:27:37.450Z,11.55
2019-04-28T21:30:07.476Z,10.60
2019-04-28T21:32:36.882Z,11.43
2019-04-28T21:35:06.336Z,14.30
2019-04-28T21:37:35.866Z,11.57
2019-04-28T21:40:06.702Z,11.45
2019-04-28T21:42:52.901Z,12.35
2019-04-28T21:45:23.968Z,12.10
2019-04-28T21:47:53.363Z,10.45
2019-04-28T21:50:22.742Z,10.60
2019-04-28T21:52:52.178Z,10.15
2019-04-28T21:55:21.634Z,10.25
2019-04-28T21:57:51.087Z,9.78
2019-04-28T22:00:22.157Z,10.00
2019-04-28T22:03:09.351Z,9.58
2019-04-28T22:05:38.881Z,10.98
2019-04-28T22:08:08.338Z,8.70
2019-04-28T22:10:37.716Z,9.70
2019-04-28T22:13:07.093Z,9.78
2019-04-28T22:15:36.462Z,10.48
2019-04-28T22:18:06.308Z,9.28
2019-04-28T22:20:35.731Z,14.50
2019-04-28T22:23:18.668Z,11.35
2019-04-28T22:25:43.734Z,10.13
2019-04-28T22:28:13.265Z,13.48
2019-04-28T22:30:42.719Z,18.77
2019-04-28T22:33:12.250Z,11.12
2019-04-28T22:35:41.651Z,28.47
2019-04-28T22:38:10.998Z,8.88
2019-04-28T22:40:40.462Z,16.87
2019-04-28T22:43:09.907Z,15.00
2019-04-28T22:45:39.293Z,8.50
2019-04-28T22:48:10.362Z,9.55
2019-04-28T22:50:42.222Z,9.03
2019-04-28T22:53:12.078Z,9.35
2019-04-28T22:55:43.179Z,8.25
2019-04-28T22:58:20.006Z,8.88
2019-04-28T23:00:50.989Z,8.43
2019-04-28T23:03:22.015Z,7.80
2019-04-28T23:05:51.409Z,7.67
2019-04-28T23:08:20.974Z,7.60
2019-04-28T23:10:50.508Z,7.85
2019-04-28T23:13:19.857Z,8.70
2019-04-28T23:15:49.226Z,8.33
2019-04-28T23:18:19.867Z,9.43
2019-04-28T23:20:54.083Z,9.20
2019-04-28T23:23:23.541Z,9.28
2019-04-28T23:25:52.992Z,9.68
2019-04-28T23:28:22.410Z,10.32
2019-04-28T23:30:51.825Z,10.95
2019-04-28T23:33:21.279Z,10.82
2019-04-28T23:35:50.732Z,11.55
2019-04-28T23:38:20.188Z,11.45
2019-04-28T23:40:54.254Z,11.45
2019-04-28T23:43:23.707Z,11.53
2019-04-28T23:45:53.161Z,11.97
2019-04-28T23:48:22.691Z,12.50
2019-04-28T23:50:53.893Z,12.35
2019-04-28T23:53:24.980Z,11.88
2019-04-28T23:55:54.512Z,12.63
